createdAt,value
2019-03-21T00:00:54.514Z,11.96
2019-03-21T00:01:54.545Z,12.00
2019-03-21T00:02:54.574Z,12.00
2019-03-21T00:03:54.609Z,11.90
2019-03-21T00:04:54.640Z,11.88
2019-03-21T00:05:54.678Z,11.79
2019-03-21T00:06:54.702Z,11.75
2019-03-21T00:07:54.736Z,11.78
2019-03-21T00:08:54.771Z,11.69
2019-03-21T00:09:54.798Z,11.85
2019-03-21T00:10:54.833Z,11.82
2019-03-21T00:11:54.866Z,11.77
2019-03-21T00:12:54.895Z,11.78
2019-03-21T00:13:54.925Z,11.82
2019-03-21T00:14:54.958Z,11.81
2019-03-21T00:15:54.996Z,11.78
2019-03-21T00:16:55.023Z,11.87
2019-03-21T00:17:55.053Z,11.79
2019-03-21T00:18:55.086Z,11.79
2019-03-21T00:19:55.125Z,11.75
2019-03-21T00:20:55.151Z,11.78
2019-03-21T00:21:55.183Z,11.79
2019-03-21T00:22:55.215Z,11.72
2019-03-21T00:23:55.246Z,11.81
2019-03-21T00:24:55.278Z,11.77
2019-03-21T00:25:55.308Z,11.74
2019-03-21T00:26:55.345Z,11.84
2019-03-21T00:27:55.375Z,11.66
2019-03-21T00:28:55.406Z,11.77
2019-03-21T00:29:55.436Z,11.72
2019-03-21T00:30:55.470Z,11.74
2019-03-21T00:31:55.502Z,11.67
2019-03-21T00:32:55.532Z,11.70
2019-03-21T00:33:55.565Z,11.66
2019-03-21T00:34:55.597Z,11.72
2019-03-21T00:35:55.629Z,11.67
2019-03-21T00:36:55.662Z,11.67
2019-03-21T00:37:55.736Z,11.72
2019-03-21T00:38:55.724Z,11.69
2019-03-21T00:39:55.756Z,11.75
2019-03-21T00:40:55.791Z,11.78
2019-03-21T00:41:55.820Z,11.69
2019-03-21T00:42:55.852Z,11.70
2019-03-21T00:43:55.883Z,11.69
2019-03-21T00:44:55.919Z,11.75
2019-03-21T00:45:55.947Z,11.72
2019-03-21T00:46:55.979Z,11.77
2019-03-21T00:47:56.013Z,11.69
2019-03-21T00:48:56.043Z,11.75
2019-03-21T00:49:56.074Z,11.72
2019-03-21T00:50:56.111Z,11.75
2019-03-21T00:51:56.139Z,11.67
2019-03-21T00:52:56.170Z,11.66
2019-03-21T00:53:56.200Z,11.64
2019-03-21T00:54:56.233Z,11.63
2019-03-21T00:55:56.265Z,11.67
2019-03-21T00:56:56.298Z,11.67
2019-03-21T00:57:58.531Z,11.64
2019-03-21T00:58:56.359Z,11.63
2019-03-21T00:59:56.393Z,11.67
2019-03-21T01:00:56.424Z,11.72
2019-03-21T01:01:56.456Z,11.67
2019-03-21T01:02:56.489Z,11.72
2019-03-21T01:03:56.519Z,11.67
2019-03-21T01:04:56.551Z,11.64
2019-03-21T01:05:56.582Z,11.70
2019-03-21T01:06:56.615Z,11.69
2019-03-21T01:07:56.646Z,11.72
2019-03-21T01:08:56.679Z,11.79
2019-03-21T01:09:56.712Z,11.77
2019-03-21T01:10:56.742Z,11.78
2019-03-21T01:11:56.775Z,11.75
2019-03-21T01:12:56.807Z,11.67
2019-03-21T01:13:56.840Z,11.74
2019-03-21T01:14:56.869Z,11.69
2019-03-21T01:15:56.901Z,11.72
2019-03-21T01:16:56.935Z,11.64
2019-03-21T01:17:56.963Z,11.75
2019-03-21T01:18:56.997Z,11.72
2019-03-21T01:19:57.029Z,11.70
2019-03-21T01:20:57.061Z,11.75
2019-03-21T01:21:57.091Z,11.62
2019-03-21T01:22:57.124Z,11.64
2019-03-21T01:23:57.157Z,11.54
2019-03-21T01:24:57.186Z,11.56
2019-03-21T01:25:57.217Z,11.53
2019-03-21T01:26:57.257Z,11.64
2019-03-21T01:27:57.283Z,11.51
2019-03-21T01:28:57.314Z,11.57
2019-03-21T01:29:57.345Z,11.69
2019-03-21T01:30:57.376Z,11.66
2019-03-21T01:31:57.408Z,11.63
2019-03-21T01:32:57.442Z,11.63
2019-03-21T01:33:57.471Z,11.56
2019-03-21T01:34:57.504Z,11.45
2019-03-21T01:35:57.537Z,11.62
2019-03-21T01:36:57.567Z,11.62
2019-03-21T01:37:57.600Z,11.51
2019-03-21T01:38:57.633Z,11.53
2019-03-21T01:39:57.662Z,11.56
2019-03-21T01:40:57.695Z,11.56
2019-03-21T01:41:57.725Z,11.59
2019-03-21T01:42:57.756Z,11.57
2019-03-21T01:43:57.794Z,11.56
2019-03-21T01:44:57.821Z,11.59
2019-03-21T01:45:57.867Z,11.60
2019-03-21T01:46:57.885Z,11.45
2019-03-21T01:47:57.920Z,11.42
2019-03-21T01:48:57.947Z,11.54
2019-03-21T01:49:57.979Z,11.54
2019-03-21T01:50:58.011Z,11.56
2019-03-21T01:51:58.044Z,11.62
2019-03-21T01:52:58.074Z,11.57
2019-03-21T01:53:58.106Z,11.60
2019-03-21T01:54:58.141Z,11.56
2019-03-21T01:55:58.170Z,11.56
2019-03-21T01:56:58.201Z,11.60
2019-03-21T01:57:58.232Z,11.53
2019-03-21T01:58:58.265Z,11.62
2019-03-21T01:59:58.296Z,11.62
2019-03-21T02:00:58.330Z,11.57
2019-03-21T02:01:58.358Z,11.59
2019-03-21T02:02:58.392Z,11.59
2019-03-21T02:03:58.425Z,11.57
2019-03-21T02:04:58.474Z,11.63
2019-03-21T02:05:58.486Z,11.54
2019-03-21T02:06:58.518Z,11.62
2019-03-21T02:07:58.549Z,11.54
2019-03-21T02:08:58.583Z,11.57
2019-03-21T02:09:58.613Z,11.53
2019-03-21T02:10:58.646Z,11.51
2019-03-21T02:11:58.677Z,11.56
2019-03-21T02:12:58.709Z,11.62
2019-03-21T02:13:58.740Z,11.54
2019-03-21T02:14:58.771Z,11.51
2019-03-21T02:15:59.364Z,11.57
2019-03-21T02:16:58.838Z,11.59
2019-03-21T02:17:58.868Z,11.54
2019-03-21T02:18:58.897Z,11.51
2019-03-21T02:19:58.930Z,11.42
2019-03-21T02:20:58.963Z,11.56
2019-03-21T02:21:58.992Z,11.53
2019-03-21T02:22:59.025Z,11.51
2019-03-21T02:23:59.056Z,11.42
2019-03-21T02:24:59.089Z,11.48
2019-03-21T02:25:59.119Z,11.51
2019-03-21T02:26:59.152Z,11.48
2019-03-21T02:27:59.185Z,11.53
2019-03-21T02:28:59.219Z,11.45
2019-03-21T02:29:59.248Z,11.46
2019-03-21T02:30:59.279Z,11.51
2019-03-21T02:31:59.312Z,11.41
2019-03-21T02:32:59.349Z,11.38
2019-03-21T02:33:59.379Z,11.41
2019-03-21T02:34:59.406Z,11.33
2019-03-21T02:36:00.325Z,11.33
2019-03-21T02:36:59.470Z,11.35
2019-03-21T02:37:59.500Z,11.31
2019-03-21T02:38:59.536Z,11.31
2019-03-21T02:40:00.387Z,11.19
2019-03-21T02:40:59.619Z,11.28
2019-03-21T02:41:59.630Z,11.28
2019-03-21T02:42:59.667Z,11.21
2019-03-21T02:43:59.693Z,11.23
2019-03-21T02:45:08.297Z,11.20
2019-03-21T02:45:59.756Z,11.27
2019-03-21T02:46:59.785Z,11.23
2019-03-21T02:47:59.816Z,11.23
2019-03-21T02:48:59.850Z,11.24
2019-03-21T02:49:59.882Z,11.28
2019-03-21T02:50:59.911Z,11.24
2019-03-21T02:51:59.949Z,11.31
2019-03-21T02:52:59.975Z,11.30
2019-03-21T02:54:00.009Z,11.28
2019-03-21T02:55:00.038Z,11.23
2019-03-21T02:56:00.072Z,11.36
2019-03-21T02:57:00.103Z,11.23
2019-03-21T02:58:00.135Z,11.28
2019-03-21T02:59:00.164Z,11.30
2019-03-21T03:00:00.439Z,11.26
2019-03-21T03:01:00.228Z,11.27
2019-03-21T03:02:00.257Z,11.28
2019-03-21T03:03:00.289Z,11.28
2019-03-21T03:04:00.323Z,11.27
2019-03-21T03:05:00.494Z,11.26
2019-03-21T03:06:00.383Z,11.20
2019-03-21T03:07:00.435Z,11.17
2019-03-21T03:08:00.448Z,11.12
2019-03-21T03:09:00.481Z,11.16
2019-03-21T03:10:00.604Z,11.17
2019-03-21T03:11:00.543Z,11.13
2019-03-21T03:12:00.575Z,11.16
2019-03-21T03:13:00.607Z,11.17
2019-03-21T03:14:04.183Z,11.16
2019-03-21T03:15:00.677Z,11.16
2019-03-21T03:16:00.699Z,11.19
2019-03-21T03:17:00.732Z,11.17
2019-03-21T03:18:00.763Z,11.19
2019-03-21T03:19:00.794Z,11.13
2019-03-21T03:20:00.826Z,11.16
2019-03-21T03:21:00.858Z,11.13
2019-03-21T03:22:00.889Z,11.19
2019-03-21T03:23:00.921Z,11.13
2019-03-21T03:24:00.952Z,11.16
2019-03-21T03:25:00.984Z,11.16
2019-03-21T03:26:01.017Z,11.12
2019-03-21T03:27:01.046Z,11.16
2019-03-21T03:28:01.077Z,11.21
2019-03-21T03:29:01.111Z,11.20
2019-03-21T03:30:01.155Z,11.13
2019-03-21T03:31:01.201Z,11.16
2019-03-21T03:32:01.210Z,11.16
2019-03-21T03:33:01.237Z,11.16
2019-03-21T03:34:01.270Z,11.20
2019-03-21T03:35:01.377Z,11.19
2019-03-21T03:36:01.336Z,11.17
2019-03-21T03:37:01.362Z,11.23
2019-03-21T03:38:01.393Z,11.21
2019-03-21T03:39:01.426Z,11.26
2019-03-21T03:40:01.457Z,11.24
2019-03-21T03:41:01.488Z,11.26
2019-03-21T03:42:01.519Z,11.21
2019-03-21T03:43:01.579Z,11.21
2019-03-21T03:44:01.580Z,11.21
2019-03-21T03:45:01.618Z,11.17
2019-03-21T03:46:01.643Z,11.16
2019-03-21T03:47:01.681Z,11.19
2019-03-21T03:48:01.708Z,11.30
2019-03-21T03:49:01.746Z,11.27
2019-03-21T03:50:01.772Z,11.27
2019-03-21T03:51:01.802Z,11.28
2019-03-21T03:52:01.834Z,11.28
2019-03-21T03:53:01.869Z,11.27
2019-03-21T03:54:01.895Z,11.33
2019-03-21T03:55:01.928Z,11.30
2019-03-21T03:56:02.019Z,11.30
2019-03-21T03:57:02.002Z,11.23
2019-03-21T03:58:02.022Z,11.33
2019-03-21T03:59:02.057Z,11.24
2019-03-21T04:00:02.090Z,11.30
2019-03-21T04:01:02.118Z,11.24
2019-03-21T04:02:02.148Z,11.26
2019-03-21T04:03:02.179Z,11.16
2019-03-21T04:04:02.221Z,11.31
2019-03-21T04:05:02.326Z,11.28
2019-03-21T04:06:02.288Z,11.23
2019-03-21T04:07:02.305Z,11.24
2019-03-21T04:08:02.337Z,11.20
2019-03-21T04:09:02.369Z,11.30
2019-03-21T04:10:02.403Z,11.24
2019-03-21T04:11:02.431Z,11.21
2019-03-21T04:12:02.501Z,11.19
2019-03-21T04:13:02.503Z,11.17
2019-03-21T04:14:02.539Z,11.19
2019-03-21T04:15:02.557Z,11.19
2019-03-21T04:16:02.589Z,11.11
2019-03-21T04:17:02.622Z,11.16
2019-03-21T04:18:02.658Z,11.19
2019-03-21T04:19:02.746Z,11.16
2019-03-21T04:20:02.715Z,11.17
2019-03-21T04:21:02.784Z,11.21
2019-03-21T04:22:02.780Z,11.20
2019-03-21T04:23:02.811Z,11.27
2019-03-21T04:24:02.842Z,11.33
2019-03-21T04:25:02.873Z,11.31
2019-03-21T04:26:02.909Z,11.23
2019-03-21T04:27:02.941Z,11.24
2019-03-21T04:28:02.969Z,11.35
2019-03-21T04:29:02.999Z,11.24
2019-03-21T04:30:03.033Z,11.30
2019-03-21T04:31:03.068Z,11.30
2019-03-21T04:32:03.094Z,11.21
2019-03-21T04:33:03.125Z,11.28
2019-03-21T04:34:03.163Z,11.26
2019-03-21T04:35:03.191Z,11.27
2019-03-21T04:36:03.220Z,11.23
2019-03-21T04:37:03.251Z,11.24
2019-03-21T04:38:03.285Z,11.28
2019-03-21T04:39:03.316Z,11.26
2019-03-21T04:40:03.347Z,11.21
2019-03-21T04:41:03.375Z,11.27
2019-03-21T04:42:03.408Z,11.19
2019-03-21T04:43:03.439Z,11.24
2019-03-21T04:44:03.470Z,11.24
2019-03-21T04:45:03.501Z,11.26
2019-03-21T04:46:03.943Z,11.23
2019-03-21T04:47:03.564Z,11.13
2019-03-21T04:48:03.599Z,11.20
2019-03-21T04:49:03.627Z,11.20
2019-03-21T04:50:03.659Z,11.16
2019-03-21T04:51:03.690Z,11.19
2019-03-21T04:52:03.759Z,11.13
2019-03-21T04:53:03.754Z,11.16
2019-03-21T04:54:03.796Z,11.19
2019-03-21T04:55:03.819Z,11.17
2019-03-21T04:56:03.849Z,11.20
2019-03-21T04:57:03.881Z,11.13
2019-03-21T04:58:03.911Z,11.21
2019-03-21T04:59:03.944Z,11.16
2019-03-21T05:00:04.000Z,11.21
2019-03-21T05:01:04.007Z,11.19
2019-03-21T05:02:04.043Z,11.16
2019-03-21T05:03:04.130Z,11.20
2019-03-21T05:04:04.100Z,11.19
2019-03-21T05:05:04.131Z,11.27
2019-03-21T05:06:04.165Z,11.20
2019-03-21T05:07:04.197Z,11.24
2019-03-21T05:08:04.226Z,11.30
2019-03-21T05:09:04.257Z,11.28
2019-03-21T05:10:04.295Z,11.30
2019-03-21T05:11:04.320Z,11.28
2019-03-21T05:12:04.352Z,11.27
2019-03-21T05:13:04.384Z,11.27
2019-03-21T05:14:04.414Z,11.26
2019-03-21T05:15:04.446Z,11.31
2019-03-21T05:16:14.273Z,11.31
2019-03-21T05:17:04.509Z,11.24
2019-03-21T05:18:04.540Z,11.31
2019-03-21T05:19:04.575Z,11.30
2019-03-21T05:20:04.606Z,11.31
2019-03-21T05:21:04.637Z,11.33
2019-03-21T05:22:04.665Z,11.45
2019-03-21T05:23:04.698Z,11.41
2019-03-21T05:24:04.729Z,11.33
2019-03-21T05:25:04.762Z,11.38
2019-03-21T05:26:04.803Z,11.41
2019-03-21T05:27:04.827Z,11.42
2019-03-21T05:28:04.857Z,11.38
2019-03-21T05:29:04.887Z,11.36
2019-03-21T05:30:04.917Z,11.36
2019-03-21T05:31:04.951Z,11.38
2019-03-21T05:32:04.982Z,11.35
2019-03-21T05:33:05.015Z,11.33
2019-03-21T05:34:05.044Z,11.42
2019-03-21T05:35:05.077Z,11.31
2019-03-21T05:36:05.111Z,11.33
2019-03-21T05:37:05.166Z,11.41
2019-03-21T05:38:05.171Z,11.49
2019-03-21T05:39:05.201Z,11.42
2019-03-21T05:40:05.233Z,11.45
2019-03-21T05:41:05.265Z,11.42
2019-03-21T05:42:05.298Z,11.42
2019-03-21T05:43:05.333Z,11.48
2019-03-21T05:44:05.360Z,11.39
2019-03-21T05:45:05.394Z,11.44
2019-03-21T05:46:05.424Z,11.45
2019-03-21T05:47:05.456Z,11.45
2019-03-21T05:48:05.485Z,11.45
2019-03-21T05:49:05.524Z,11.45
2019-03-21T05:50:05.557Z,11.42
2019-03-21T05:51:05.650Z,11.45
2019-03-21T05:52:05.613Z,11.41
2019-03-21T05:53:05.643Z,11.44
2019-03-21T05:54:05.675Z,11.42
2019-03-21T05:55:05.705Z,11.45
2019-03-21T05:56:05.739Z,11.48
2019-03-21T05:57:05.769Z,11.48
2019-03-21T05:58:05.801Z,11.53
2019-03-21T05:59:05.833Z,11.49
2019-03-21T06:00:05.867Z,11.48
2019-03-21T06:01:05.897Z,11.51
2019-03-21T06:02:05.927Z,11.56
2019-03-21T06:03:05.962Z,11.54
2019-03-21T06:04:05.995Z,11.57
2019-03-21T06:05:06.022Z,11.53
2019-03-21T06:06:06.052Z,11.54
2019-03-21T06:07:06.084Z,11.54
2019-03-21T06:08:06.118Z,11.57
2019-03-21T06:09:06.148Z,11.57
2019-03-21T06:10:06.179Z,11.59
2019-03-21T06:11:06.212Z,11.57
2019-03-21T06:12:06.246Z,11.59
2019-03-21T06:13:06.280Z,11.64
2019-03-21T06:14:06.307Z,11.67
2019-03-21T06:15:06.337Z,11.63
2019-03-21T06:16:06.369Z,11.62
2019-03-21T06:17:06.401Z,11.70
2019-03-21T06:18:06.431Z,11.66
2019-03-21T06:19:06.462Z,11.67
2019-03-21T06:20:06.498Z,11.77
2019-03-21T06:21:06.548Z,11.64
2019-03-21T06:22:06.562Z,11.62
2019-03-21T06:23:06.590Z,11.63
2019-03-21T06:24:06.622Z,11.63
2019-03-21T06:25:06.655Z,11.53
2019-03-21T06:26:06.685Z,11.56
2019-03-21T06:27:14.356Z,11.67
2019-03-21T06:28:06.758Z,11.62
2019-03-21T06:29:06.780Z,11.60
2019-03-21T06:30:06.814Z,11.57
2019-03-21T06:31:06.845Z,11.54
2019-03-21T06:32:06.874Z,11.63
2019-03-21T06:33:06.907Z,11.57
2019-03-21T06:34:06.941Z,11.72
2019-03-21T06:35:06.970Z,11.51
2019-03-21T06:36:07.005Z,11.51
2019-03-21T06:37:07.034Z,11.57
2019-03-21T06:38:07.064Z,11.66
2019-03-21T06:39:07.096Z,11.64
2019-03-21T06:40:07.128Z,11.62
2019-03-21T06:41:07.225Z,11.70
2019-03-21T06:42:07.191Z,11.66
2019-03-21T06:43:07.224Z,11.62
2019-03-21T06:44:07.255Z,11.77
2019-03-21T06:45:07.288Z,11.78
2019-03-21T06:46:07.318Z,11.78
2019-03-21T06:47:07.352Z,11.79
2019-03-21T06:48:07.382Z,11.79
2019-03-21T06:49:07.415Z,11.78
2019-03-21T06:50:07.444Z,11.88
2019-03-21T06:51:07.481Z,11.82
2019-03-21T06:52:07.509Z,11.88
2019-03-21T06:53:07.541Z,11.85
2019-03-21T06:54:07.571Z,11.96
2019-03-21T06:55:07.605Z,11.90
2019-03-21T06:56:07.637Z,11.93
2019-03-21T06:57:07.667Z,11.84
2019-03-21T06:58:07.697Z,11.87
2019-03-21T06:59:07.731Z,11.93
2019-03-21T07:00:07.771Z,11.87
2019-03-21T07:01:07.794Z,11.94
2019-03-21T07:02:07.827Z,11.84
2019-03-21T07:03:07.858Z,11.94
2019-03-21T07:04:07.895Z,11.85
2019-03-21T07:05:07.923Z,11.93
2019-03-21T07:06:07.953Z,11.87
2019-03-21T07:07:08.771Z,11.90
2019-03-21T07:08:08.019Z,11.90
2019-03-21T07:09:08.058Z,11.98
2019-03-21T07:10:08.080Z,11.87
2019-03-21T07:11:08.111Z,11.88
2019-03-21T07:12:08.143Z,11.90
2019-03-21T07:13:08.177Z,11.90
2019-03-21T07:14:08.207Z,11.82
2019-03-21T07:15:08.239Z,11.85
2019-03-21T07:16:09.385Z,11.97
2019-03-21T07:17:08.302Z,11.97
2019-03-21T07:18:08.335Z,11.94
2019-03-21T07:19:08.367Z,12.00
2019-03-21T07:20:08.398Z,11.98
2019-03-21T07:21:08.429Z,12.07
2019-03-21T07:22:08.462Z,12.08
2019-03-21T07:23:08.494Z,12.11
2019-03-21T07:24:08.532Z,12.12
2019-03-21T07:25:08.558Z,12.15
2019-03-21T07:26:08.592Z,12.12
2019-03-21T07:27:08.623Z,12.18
2019-03-21T07:28:08.653Z,12.22
2019-03-21T07:29:08.686Z,12.16
2019-03-21T07:30:08.718Z,12.19
2019-03-21T07:31:11.217Z,12.13
2019-03-21T07:32:08.821Z,12.08
2019-03-21T07:33:08.813Z,12.18
2019-03-21T07:34:10.168Z,12.12
2019-03-21T07:35:08.878Z,12.15
2019-03-21T07:36:08.909Z,12.16
2019-03-21T07:37:08.941Z,12.11
2019-03-21T07:38:08.971Z,12.15
2019-03-21T07:39:09.003Z,12.07
2019-03-21T07:40:09.035Z,12.08
2019-03-21T07:41:09.070Z,12.19
2019-03-21T07:42:09.098Z,12.18
2019-03-21T07:43:09.129Z,12.22
2019-03-21T07:44:09.163Z,12.16
2019-03-21T07:45:09.195Z,12.12
2019-03-21T07:46:09.225Z,12.11
2019-03-21T07:47:13.114Z,12.16
2019-03-21T07:48:09.292Z,12.12
2019-03-21T07:49:09.323Z,12.18
2019-03-21T07:50:09.354Z,12.07
2019-03-21T07:51:09.385Z,12.05
2019-03-21T07:52:09.419Z,12.03
2019-03-21T07:53:09.449Z,11.97
2019-03-21T07:54:09.482Z,11.88
2019-03-21T07:55:09.514Z,11.88
2019-03-21T07:56:09.546Z,11.87
2019-03-21T07:57:09.577Z,11.94
2019-03-21T07:58:09.612Z,11.93
2019-03-21T07:59:09.642Z,11.87
2019-03-21T08:00:09.673Z,11.88
2019-03-21T08:01:09.707Z,11.96
2019-03-21T08:02:09.735Z,11.84
2019-03-21T08:03:09.769Z,11.88
2019-03-21T08:04:09.801Z,11.90
2019-03-21T08:05:09.833Z,11.97
2019-03-21T08:06:09.864Z,11.87
2019-03-21T08:07:09.896Z,11.88
2019-03-21T08:08:09.930Z,11.97
2019-03-21T08:09:09.963Z,11.90
2019-03-21T08:10:09.992Z,11.94
2019-03-21T08:11:10.023Z,11.96
2019-03-21T08:12:10.065Z,11.87
2019-03-21T08:13:10.088Z,11.81
2019-03-21T08:14:10.118Z,11.77
2019-03-21T08:15:10.154Z,11.67
2019-03-21T08:16:10.184Z,11.82
2019-03-21T08:17:10.214Z,11.77
2019-03-21T08:18:10.246Z,11.74
2019-03-21T08:19:10.280Z,11.82
2019-03-21T08:20:10.309Z,11.70
2019-03-21T08:21:10.342Z,11.69
2019-03-21T08:22:10.426Z,11.77
2019-03-21T08:23:10.404Z,11.72
2019-03-21T08:24:10.437Z,11.70
2019-03-21T08:25:10.474Z,11.72
2019-03-21T08:26:10.499Z,11.70
2019-03-21T08:27:10.532Z,11.70
2019-03-21T08:28:10.566Z,11.82
2019-03-21T08:29:10.595Z,11.78
2019-03-21T08:30:10.626Z,11.82
2019-03-21T08:31:10.658Z,11.87
2019-03-21T08:32:10.691Z,11.85
2019-03-21T08:33:10.723Z,11.94
2019-03-21T08:34:10.756Z,11.94
2019-03-21T08:35:10.785Z,11.79
2019-03-21T08:36:10.817Z,11.84
2019-03-21T08:37:10.849Z,11.90
2019-03-21T08:38:10.880Z,11.84
2019-03-21T08:39:10.911Z,11.82
2019-03-21T08:40:10.943Z,11.97
2019-03-21T08:41:10.976Z,11.90
2019-03-21T08:42:11.006Z,11.90
2019-03-21T08:43:11.039Z,11.82
2019-03-21T08:44:11.072Z,11.90
2019-03-21T08:45:11.104Z,11.96
2019-03-21T08:46:11.136Z,11.90
2019-03-21T08:47:11.166Z,11.85
2019-03-21T08:48:11.201Z,11.90
2019-03-21T08:49:11.231Z,11.97
2019-03-21T08:50:11.259Z,12.00
2019-03-21T08:51:11.293Z,12.00
2019-03-21T08:52:11.326Z,11.96
2019-03-21T08:53:11.356Z,11.98
2019-03-21T08:54:11.388Z,12.01
2019-03-21T08:55:11.418Z,12.00
2019-03-21T08:56:11.451Z,11.98
2019-03-21T08:57:11.483Z,12.04
2019-03-21T08:58:11.513Z,12.05
2019-03-21T08:59:11.546Z,12.15
2019-03-21T09:00:11.578Z,12.13
2019-03-21T09:01:11.615Z,12.11
2019-03-21T09:02:11.641Z,12.19
2019-03-21T09:03:11.673Z,12.22
2019-03-21T09:04:11.706Z,12.22
2019-03-21T09:05:11.736Z,12.19
2019-03-21T09:06:11.768Z,12.26
2019-03-21T09:07:11.805Z,12.31
2019-03-21T09:08:11.832Z,12.36
2019-03-21T09:09:11.864Z,12.31
2019-03-21T09:10:11.896Z,12.37
2019-03-21T09:11:11.928Z,12.40
2019-03-21T09:12:11.959Z,12.38
2019-03-21T09:13:11.990Z,12.38
2019-03-21T09:14:12.021Z,12.40
2019-03-21T09:15:12.054Z,12.30
2019-03-21T09:16:12.089Z,12.40
2019-03-21T09:17:12.118Z,12.33
2019-03-21T09:18:12.149Z,12.26
2019-03-21T09:19:12.185Z,12.31
2019-03-21T09:20:12.215Z,12.36
2019-03-21T09:21:19.529Z,12.43
2019-03-21T09:22:12.278Z,12.33
2019-03-21T09:23:12.313Z,12.34
2019-03-21T09:24:12.343Z,12.40
2019-03-21T09:25:12.375Z,12.36
2019-03-21T09:26:12.406Z,12.43
2019-03-21T09:27:12.444Z,12.37
2019-03-21T09:28:14.152Z,12.30
2019-03-21T09:29:12.502Z,12.36
2019-03-21T09:30:12.533Z,12.30
2019-03-21T09:31:12.569Z,12.38
2019-03-21T09:32:12.618Z,12.37
2019-03-21T09:33:12.631Z,12.44
2019-03-21T09:34:12.665Z,12.31
2019-03-21T09:35:12.695Z,12.34
2019-03-21T09:36:12.729Z,12.31
2019-03-21T09:37:12.758Z,12.34
2019-03-21T09:38:12.790Z,12.36
2019-03-21T09:39:12.824Z,12.26
2019-03-21T09:40:12.853Z,12.29
2019-03-21T09:41:12.885Z,12.26
2019-03-21T09:42:12.918Z,12.23
2019-03-21T09:43:12.948Z,12.22
2019-03-21T09:44:12.980Z,12.26
2019-03-21T09:45:13.014Z,12.31
2019-03-21T09:46:13.046Z,12.34
2019-03-21T09:47:13.077Z,12.40
2019-03-21T09:48:13.112Z,12.31
2019-03-21T09:49:13.141Z,12.44
2019-03-21T09:50:13.225Z,12.40
2019-03-21T09:51:13.204Z,12.49
2019-03-21T09:52:13.237Z,12.58
2019-03-21T09:53:13.268Z,12.61
2019-03-21T09:54:13.298Z,12.61
2019-03-21T09:55:13.334Z,12.63
2019-03-21T09:56:13.366Z,12.63
2019-03-21T09:57:13.397Z,12.63
2019-03-21T09:58:13.430Z,12.62
2019-03-21T09:59:13.459Z,12.69
2019-03-21T10:00:13.494Z,12.71
2019-03-21T10:01:13.525Z,12.77
2019-03-21T10:02:13.558Z,12.76
2019-03-21T10:03:13.604Z,12.62
2019-03-21T10:04:13.620Z,12.52
2019-03-21T10:05:13.653Z,12.58
2019-03-21T10:06:13.686Z,12.41
2019-03-21T10:07:13.717Z,12.38
2019-03-21T10:08:13.752Z,12.51
2019-03-21T10:09:13.783Z,12.43
2019-03-21T10:10:13.812Z,12.37
2019-03-21T10:11:13.845Z,12.40
2019-03-21T10:12:13.877Z,12.48
2019-03-21T10:13:13.910Z,12.44
2019-03-21T10:14:13.941Z,12.55
2019-03-21T10:15:13.973Z,12.62
2019-03-21T10:16:14.008Z,12.66
2019-03-21T10:17:14.040Z,12.73
2019-03-21T10:18:14.069Z,12.73
2019-03-21T10:19:14.101Z,12.71
2019-03-21T10:20:14.138Z,12.76
2019-03-21T10:21:14.167Z,12.73
2019-03-21T10:22:14.197Z,12.77
2019-03-21T10:23:14.229Z,12.74
2019-03-21T10:24:14.264Z,12.84
2019-03-21T10:25:14.294Z,12.84
2019-03-21T10:26:14.326Z,12.71
2019-03-21T10:27:14.356Z,12.81
2019-03-21T10:28:14.390Z,12.81
2019-03-21T10:29:14.423Z,12.76
2019-03-21T10:30:14.456Z,12.79
2019-03-21T10:31:14.487Z,12.81
2019-03-21T10:32:14.809Z,12.85
2019-03-21T10:33:14.551Z,12.94
2019-03-21T10:34:14.586Z,12.94
2019-03-21T10:35:14.615Z,12.88
2019-03-21T10:36:16.110Z,12.88
2019-03-21T10:37:14.679Z,12.79
2019-03-21T10:38:14.713Z,12.91
2019-03-21T10:39:14.795Z,12.98
2019-03-21T10:40:14.776Z,12.96
2019-03-21T10:41:14.815Z,12.94
2019-03-21T10:42:14.840Z,12.88
2019-03-21T10:43:14.872Z,12.80
2019-03-21T10:44:14.905Z,12.87
2019-03-21T10:45:14.939Z,12.80
2019-03-21T10:46:14.969Z,12.76
2019-03-21T10:47:15.004Z,12.77
2019-03-21T10:48:15.035Z,12.91
2019-03-21T10:49:15.069Z,12.89
2019-03-21T10:50:15.098Z,12.81
2019-03-21T10:51:15.129Z,12.92
2019-03-21T10:52:15.163Z,12.84
2019-03-21T10:53:15.195Z,12.94
2019-03-21T10:54:15.227Z,12.87
2019-03-21T10:55:15.258Z,12.84
2019-03-21T10:56:15.294Z,12.94
2019-03-21T10:57:15.324Z,12.92
2019-03-21T10:58:15.357Z,12.96
2019-03-21T10:59:15.387Z,12.89
2019-03-21T11:00:15.421Z,12.92
2019-03-21T11:01:15.452Z,12.95
2019-03-21T11:02:15.484Z,12.96
2019-03-21T11:03:15.517Z,12.98
2019-03-21T11:04:15.551Z,12.99
2019-03-21T11:05:15.582Z,13.01
2019-03-21T11:06:15.613Z,13.03
2019-03-21T11:07:15.646Z,13.09
2019-03-21T11:08:15.679Z,12.94
2019-03-21T11:09:15.710Z,12.96
2019-03-21T11:10:15.745Z,12.85
2019-03-21T11:11:15.778Z,12.89
2019-03-21T11:12:15.812Z,12.81
2019-03-21T11:13:15.842Z,12.94
2019-03-21T11:14:15.872Z,12.94
2019-03-21T11:15:15.908Z,12.89
2019-03-21T11:16:15.937Z,12.96
2019-03-21T11:17:15.972Z,12.96
2019-03-21T11:18:16.002Z,12.96
2019-03-21T11:19:16.032Z,12.96
2019-03-21T11:20:16.066Z,12.91
2019-03-21T11:21:16.098Z,12.95
2019-03-21T11:22:16.130Z,12.96
2019-03-21T11:23:16.161Z,12.96
2019-03-21T11:24:16.196Z,12.99
2019-03-21T11:25:16.230Z,12.95
2019-03-21T11:26:16.263Z,12.98
2019-03-21T11:27:16.294Z,12.94
2019-03-21T11:28:17.787Z,12.95
2019-03-21T11:29:16.356Z,12.98
2019-03-21T11:30:16.517Z,12.94
2019-03-21T11:31:16.426Z,12.96
2019-03-21T11:32:16.453Z,12.94
2019-03-21T11:33:16.485Z,12.95
2019-03-21T11:34:16.518Z,12.94
2019-03-21T11:35:16.549Z,12.98
2019-03-21T11:36:16.581Z,12.99
2019-03-21T11:37:16.617Z,12.79
2019-03-21T11:38:16.647Z,12.77
2019-03-21T11:39:16.678Z,12.74
2019-03-21T11:40:16.712Z,12.89
2019-03-21T11:41:16.744Z,12.79
2019-03-21T11:42:16.775Z,12.91
2019-03-21T11:43:16.810Z,12.94
2019-03-21T11:44:16.843Z,12.89
2019-03-21T11:45:16.872Z,12.95
2019-03-21T11:46:16.910Z,12.89
2019-03-21T11:47:16.954Z,12.99
2019-03-21T11:48:17.043Z,12.95
2019-03-21T11:49:17.002Z,13.06
2019-03-21T11:50:17.034Z,13.09
2019-03-21T11:51:17.076Z,13.09
2019-03-21T11:52:18.368Z,13.16
2019-03-21T11:53:17.132Z,13.17
2019-03-21T11:54:17.164Z,13.21
2019-03-21T11:55:17.211Z,13.19
2019-03-21T11:56:17.235Z,13.25
2019-03-21T11:57:17.260Z,13.27
2019-03-21T11:58:17.847Z,13.28
2019-03-21T11:59:17.325Z,13.38
2019-03-21T12:00:17.356Z,13.32
2019-03-21T12:01:17.393Z,13.41
2019-03-21T12:02:26.758Z,13.36
2019-03-21T12:03:17.456Z,13.44
2019-03-21T12:04:17.487Z,13.36
2019-03-21T12:05:17.520Z,13.36
2019-03-21T12:06:17.551Z,13.32
2019-03-21T12:07:17.586Z,13.27
2019-03-21T12:08:17.616Z,13.35
2019-03-21T12:09:17.652Z,13.17
2019-03-21T12:10:17.681Z,13.16
2019-03-21T12:11:17.715Z,13.24
2019-03-21T12:12:17.751Z,13.24
2019-03-21T12:13:17.779Z,13.17
2019-03-21T12:14:17.812Z,13.14
2019-03-21T12:15:17.848Z,13.16
2019-03-21T12:16:17.875Z,13.14
2019-03-21T12:17:17.913Z,13.07
2019-03-21T12:18:17.941Z,13.01
2019-03-21T12:19:17.972Z,13.06
2019-03-21T12:20:18.007Z,13.10
2019-03-21T12:21:18.039Z,13.06
2019-03-21T12:22:29.234Z,13.04
2019-03-21T12:23:18.108Z,13.09
2019-03-21T12:24:18.139Z,13.04
2019-03-21T12:25:18.169Z,13.10
2019-03-21T12:26:18.199Z,13.13
2019-03-21T12:27:18.233Z,13.17
2019-03-21T12:28:18.266Z,13.19
2019-03-21T12:29:18.298Z,13.28
2019-03-21T12:30:18.330Z,13.28
2019-03-21T12:31:18.363Z,13.36
2019-03-21T12:32:18.396Z,13.39
2019-03-21T12:33:18.429Z,13.38
2019-03-21T12:34:18.460Z,13.39
2019-03-21T12:35:18.493Z,13.39
2019-03-21T12:36:18.529Z,13.46
2019-03-21T12:37:18.597Z,13.43
2019-03-21T12:38:18.589Z,13.47
2019-03-21T12:39:18.625Z,13.50
2019-03-21T12:40:18.655Z,13.44
2019-03-21T12:41:18.688Z,13.43
2019-03-21T12:42:18.719Z,13.43
2019-03-21T12:43:18.750Z,13.43
2019-03-21T12:44:18.789Z,13.43
2019-03-21T12:45:18.817Z,13.46
2019-03-21T12:46:18.849Z,13.47
2019-03-21T12:47:30.611Z,13.48
2019-03-21T12:48:18.917Z,13.54
2019-03-21T12:49:18.947Z,13.43
2019-03-21T12:50:18.980Z,13.36
2019-03-21T12:51:19.014Z,13.24
2019-03-21T12:52:19.094Z,13.24
2019-03-21T12:53:19.082Z,13.22